WetterOnline ( http://www.wetteronline.de )

Wetter aktuell Meinheim

Aktuelles Wetter: Weißenburg (424m)

6-stündlich | Neueste Meldungen
Ortszeit Temperatur Wetter
Fr, 22.03. 19:00 13.1° C wolkenlos
Fr, 22.03. 13:00 16.6° C leicht bewölkt
Fr, 22.03. 7:00 -1.6° C wolkig
Fr, 22.03. 1:00 1.1° C wolkenlos
Do, 21.03. 19:00 10.7° C wolkig
Do, 21.03. 13:00 12.5° C leicht bewölkt
Do, 21.03. 7:00 -3.2° C leicht bewölkt
Do, 21.03. 1:00 -1.8° C wolkenlos
Ortszeit Temperatur Wetter
Fr, 22.03. 23:00 5.0° C wolkig
Fr, 22.03. 22:50 5.0° C wolkig
Fr, 22.03. 22:40 5.3° C wolkig
Fr, 22.03. 22:30 5.4° C wolkig
Fr, 22.03. 22:20 5.4° C wolkig
Fr, 22.03. 22:10 5.5° C wolkig
Fr, 22.03. 22:00 6.2° C wolkig
Fr, 22.03. 21:30 6.7° C leicht bewölkt
Fr, 22.03. 21:00 8.1° C wolkenlos
Fr, 22.03. 20:30 8.6° C wolkenlos
Fr, 22.03. 20:00 11.2° C wolkenlos
Ortszeit Relative Feuchte Sichtweite
Fr, 22.03. 19:00 51% 45 km
Fr, 22.03. 13:00 37% 22 km
Fr, 22.03. 7:00 88% 29 km
Fr, 22.03. 1:00 78% 45 km
Do, 21.03. 19:00 36% 70 km
Do, 21.03. 13:00 33% 35 km
Do, 21.03. 7:00 89% 35 km
Do, 21.03. 1:00 87% 40 km
Ortszeit Relative Feuchte Sichtweite
Fr, 22.03. 23:00 83% 28 km
Fr, 22.03. 22:50 83% -
Fr, 22.03. 22:40 82% -
Fr, 22.03. 22:30 82% 28 km
Fr, 22.03. 22:20 82% -
Fr, 22.03. 22:10 82% -
Fr, 22.03. 22:00 79% 28 km
Fr, 22.03. 21:30 77% 26 km
Fr, 22.03. 21:00 70% 24 km
Fr, 22.03. 20:30 68% 25 km
Fr, 22.03. 20:00 58% 45 km
Ortszeit Niederschlagsmenge Niederschlagsart
Fr, 22.03. 19:00 0.0 l/m2 in 12 Std. -
Fr, 22.03. 13:00 0.0 l/m2 in 6 Std. -
Fr, 22.03. 7:00 0.0 l/m2 in 12 Std. -
Fr, 22.03. 1:00 0.0 l/m2 in 6 Std. -
Do, 21.03. 19:00 0.0 l/m2 in 12 Std. -
Do, 21.03. 13:00 0.0 l/m2 in 6 Std. -
Do, 21.03. 7:00 0.0 l/m2 in 12 Std. -
Do, 21.03. 1:00 0.0 l/m2 in 6 Std. -
Ortszeit Niederschlagsmenge Niederschlagsart
Fr, 22.03. 23:00 0.0 l/m2 in 1 Std. -
Fr, 22.03. 22:50 keine Meldung -
Fr, 22.03. 22:40 keine Meldung -
Fr, 22.03. 22:30 0.0 l/m2 in 1 Std. -
Fr, 22.03. 22:20 keine Meldung -
Fr, 22.03. 22:10 keine Meldung -
Fr, 22.03. 22:00 0.0 l/m2 in 1 Std. -
Fr, 22.03. 21:30 0.0 l/m2 in 1 Std. -
Fr, 22.03. 21:00 0.0 l/m2 in 1 Std. -
Fr, 22.03. 20:30 0.0 l/m2 in 1 Std. -
Fr, 22.03. 20:00 0.0 l/m2 in 1 Std. -
Ortszeit Stärke Spitze Richtung
km/h Bft. km/h Grad Sektor
Fr, 22.03. 19:00 7 2 32 130° SO
Fr, 22.03. 13:00 19 3 31 110° O
Fr, 22.03. 7:00 4 1 11 160° S
Fr, 22.03. 1:00 9 2 13 200° S
Do, 21.03. 19:00 2 1 31 70° O
Do, 21.03. 13:00 15 3 33 70° O
Do, 21.03. 7:00 0 0 14 - -
Do, 21.03. 1:00 9 2 15 200° S
Ortszeit Stärke Spitze Richtung
km/h Bft. km/h Grad Sektor
Fr, 22.03. 23:00 7 2 11 200° S
Fr, 22.03. 22:50 7 2 - 200° S
Fr, 22.03. 22:40 7 2 - 210° SW
Fr, 22.03. 22:30 7 2 11 190° S
Fr, 22.03. 22:20 7 2 - 190° S
Fr, 22.03. 22:10 9 2 - 200° S
Fr, 22.03. 22:00 9 2 13 210° SW
Fr, 22.03. 21:30 9 2 11 200° S
Fr, 22.03. 21:00 7 2 7 210° SW
Fr, 22.03. 20:30 7 2 7 200° S
Fr, 22.03. 20:00 7 2 11 160° S
Ortszeit Untergrenze Bedeckung Gattung
total tief tief mittel hoch
Fr, 22.03. 19:00 - 0/8 0/8 - - -
Fr, 22.03. 13:00 8400 m 8/8 0/8 - - -
Fr, 22.03. 7:00 9000 m 8/8 0/8 - - -
Fr, 22.03. 1:00 - 0/8 0/8 - - -
Do, 21.03. 19:00 10500 m 8/8 0/8 - - -
Do, 21.03. 13:00 10500 m 4/8 0/8 - - -
Do, 21.03. 7:00 10500 m 6/8 0/8 - - -
Do, 21.03. 1:00 - 0/8 0/8 - - -
Ortszeit Bedeckungsgrad in Achtel und Wolkenuntergrenze
Fr, 22.03. 23:00 8(10500m)
Fr, 22.03. 22:50 8(10500m)
Fr, 22.03. 22:40 8(10500m)
Fr, 22.03. 22:30 8(10500m)
Fr, 22.03. 22:20 8(10500m)
Fr, 22.03. 22:10 8(10500m)
Fr, 22.03. 22:00 8(10500m)
Fr, 22.03. 21:30 6(10500m)
Fr, 22.03. 21:00 keine Wolken
Fr, 22.03. 20:30 keine Wolken
Fr, 22.03. 20:00 keine Wolken
Ortszeit Luftdruck NN (hPa) Tendenz (hPa in 3 Std.)
Fr, 22.03. 19:00 1028 - 0,4
Fr, 22.03. 13:00 1029 - 1,3
Fr, 22.03. 7:00 1034 + 0,4
Fr, 22.03. 1:00 1034 - 0,3
Do, 21.03. 19:00 1032 0,0
Do, 21.03. 13:00 1033 - 1,3
Do, 21.03. 7:00 1038 0,0
Do, 21.03. 1:00 1038 0,0
Ortszeit Luftdruck NN (hPa) Tendenz (hPa in 3 Std.)
Fr, 22.03. 23:00 1030 - 0,2
Fr, 22.03. 22:50 1030 keine Meldung
Fr, 22.03. 22:40 1030 keine Meldung
Fr, 22.03. 22:30 1030 + 0,1
Fr, 22.03. 22:20 1030 keine Meldung
Fr, 22.03. 22:10 1030 keine Meldung
Fr, 22.03. 22:00 1030 + 0,1
Fr, 22.03. 21:30 1030 0,0
Fr, 22.03. 21:00 1029 + 0,1
Fr, 22.03. 20:30 1029 - 0,1
Fr, 22.03. 20:00 1029 - 0,1
Ortszeit Schneehöhe (cm)
Fr, 22.03. 19:00 0
Fr, 22.03. 13:00 0
Fr, 22.03. 7:00 0
Fr, 22.03. 1:00 0
Do, 21.03. 19:00 0
Do, 21.03. 13:00 0
Do, 21.03. 7:00 0
Do, 21.03. 1:00 0
Ortszeit Schneehöhe (cm)
Fr, 22.03. 23:00 0
Fr, 22.03. 22:50 0
Fr, 22.03. 22:40 0
Fr, 22.03. 22:30 0
Fr, 22.03. 22:20 0
Fr, 22.03. 22:10 0
Fr, 22.03. 22:00 0
Fr, 22.03. 21:30 0
Fr, 22.03. 21:00 0
Fr, 22.03. 20:30 0
Fr, 22.03. 20:00 0
Link zu dieser Seite / Seite empfehlen

Das Wetter in ...